createdAt,value
2023-03-01T00:00:44.336Z,11.70
2023-03-01T00:01:44.389Z,11.40
2023-03-01T00:02:44.434Z,11.90
2023-03-01T00:03:44.365Z,11.80
2023-03-01T00:04:44.343Z,11.90
2023-03-01T00:05:44.302Z,11.20
2023-03-01T00:06:44.288Z,12.00
2023-03-01T00:07:44.262Z,11.30
2023-03-01T00:08:44.266Z,11.60
2023-03-01T00:09:44.249Z,11.10
2023-03-01T00:10:44.272Z,12.30
2023-03-01T00:11:44.205Z,11.80
2023-03-01T00:12:44.230Z,11.90
2023-03-01T00:13:44.171Z,10.90
2023-03-01T00:14:44.204Z,11.80
2023-03-01T00:15:44.150Z,11.30
2023-03-01T00:16:44.322Z,12.30
2023-03-01T00:17:44.203Z,11.90
2023-03-01T00:18:44.135Z,12.00
2023-03-01T00:19:44.088Z,11.80
2023-03-01T00:20:44.125Z,12.20
2023-03-01T00:21:44.067Z,12.00
2023-03-01T00:22:44.096Z,11.40
2023-03-01T00:23:44.058Z,11.60
2023-03-01T00:24:44.049Z,11.60
2023-03-01T00:25:44.038Z,11.20
2023-03-01T00:26:44.035Z,12.40
2023-03-01T00:27:44.017Z,12.20
2023-03-01T00:28:43.999Z,11.80
2023-03-01T00:29:43.964Z,12.30
2023-03-01T00:30:43.995Z,11.60
2023-03-01T00:31:44.101Z,11.90
2023-03-01T00:32:43.988Z,12.00
2023-03-01T00:33:43.936Z,11.20
2023-03-01T00:34:43.928Z,12.80
2023-03-01T00:35:44.052Z,11.90
2023-03-01T00:36:43.922Z,12.70
2023-03-01T00:37:43.866Z,11.10
2023-03-01T00:38:43.913Z,11.60
2023-03-01T00:39:43.859Z,11.70
2023-03-01T00:40:43.851Z,11.90
2023-03-01T00:41:43.899Z,13.40
2023-03-01T00:42:43.833Z,12.20
2023-03-01T00:43:43.805Z,11.30
2023-03-01T00:44:43.815Z,11.60
2023-03-01T00:45:43.760Z,12.00
2023-03-01T00:46:43.772Z,11.40
2023-03-01T00:47:43.730Z,11.10
2023-03-01T00:48:43.776Z,12.70
2023-03-01T00:49:43.710Z,11.80
2023-03-01T00:50:43.727Z,12.20
2023-03-01T00:51:43.693Z,11.90
2023-03-01T00:52:43.703Z,12.10
2023-03-01T00:53:43.661Z,12.50
2023-03-01T00:54:43.699Z,11.70
2023-03-01T00:55:43.673Z,12.00
2023-03-01T00:56:43.650Z,11.40
2023-03-01T00:57:43.603Z,12.10
2023-03-01T00:58:43.651Z,11.90
2023-03-01T00:59:43.580Z,11.50
2023-03-01T01:00:43.623Z,11.50
2023-03-01T01:01:43.651Z,12.20
2023-03-01T01:02:43.617Z,12.20
2023-03-01T01:03:43.532Z,12.00
2023-03-01T01:04:43.560Z,11.50
2023-03-01T01:05:43.513Z,11.90
2023-03-01T01:06:43.635Z,12.30
2023-03-01T01:07:43.474Z,11.50
2023-03-01T01:08:43.488Z,12.40
2023-03-01T01:09:43.479Z,11.00
2023-03-01T01:10:43.472Z,11.50
2023-03-01T01:11:43.428Z,11.40
2023-03-01T01:12:43.452Z,11.60
2023-03-01T01:13:43.397Z,11.70
2023-03-01T01:14:43.402Z,11.50
2023-03-01T01:15:43.484Z,12.30
2023-03-01T01:16:43.403Z,11.70
2023-03-01T01:17:43.334Z,11.60
2023-03-01T01:18:43.356Z,12.10
2023-03-01T01:19:43.324Z,12.10
2023-03-01T01:20:43.328Z,12.20
2023-03-01T01:21:43.310Z,11.80
2023-03-01T01:22:43.290Z,12.00
2023-03-01T01:23:43.273Z,12.00
2023-03-01T01:24:43.292Z,12.10
2023-03-01T01:25:43.247Z,12.40
2023-03-01T01:26:43.273Z,12.20
2023-03-01T01:27:43.208Z,12.00
2023-03-01T01:28:43.222Z,12.90
2023-03-01T01:29:43.221Z,11.90
2023-03-01T01:30:43.202Z,11.40
2023-03-01T01:31:43.149Z,12.60
2023-03-01T01:32:43.162Z,12.00
2023-03-01T01:33:43.125Z,12.00
2023-03-01T01:34:43.156Z,12.60
2023-03-01T01:35:43.202Z,12.60
2023-03-01T01:36:43.119Z,12.30
2023-03-01T01:37:43.080Z,12.50
2023-03-01T01:38:43.106Z,13.10
2023-03-01T01:39:43.082Z,12.50
2023-03-01T01:40:43.065Z,12.30
2023-03-01T01:41:43.033Z,12.50
2023-03-01T01:42:43.070Z,12.80
2023-03-01T01:43:43.000Z,12.20
2023-03-01T01:44:43.029Z,13.90
2023-03-01T01:45:42.976Z,12.00
2023-03-01T01:46:43.022Z,11.80
2023-03-01T01:47:42.963Z,13.10
2023-03-01T01:48:42.971Z,13.40
2023-03-01T01:49:42.934Z,12.10
2023-03-01T01:50:42.948Z,12.40
2023-03-01T01:51:42.917Z,13.10
2023-03-01T01:52:42.962Z,12.30
2023-03-01T01:53:42.856Z,12.80
2023-03-01T01:54:42.893Z,12.20
2023-03-01T01:55:42.843Z,12.40
2023-03-01T01:56:42.871Z,13.10
2023-03-01T01:57:42.836Z,12.40
2023-03-01T01:58:42.834Z,13.00
2023-03-01T01:59:42.805Z,12.60
2023-03-01T02:00:42.800Z,13.10
2023-03-01T02:01:42.809Z,12.90
2023-03-01T02:02:42.849Z,12.90
2023-03-01T02:03:42.844Z,12.30
2023-03-01T02:04:42.750Z,12.80
2023-03-01T02:05:42.708Z,12.70
2023-03-01T02:06:42.740Z,12.10
2023-03-01T02:07:42.699Z,12.50
2023-03-01T02:08:42.718Z,13.50
2023-03-01T02:09:42.658Z,12.90
2023-03-01T02:10:42.660Z,13.20
2023-03-01T02:11:42.651Z,12.70
2023-03-01T02:12:42.646Z,13.20
2023-03-01T02:13:42.606Z,13.20
2023-03-01T02:14:42.620Z,12.80
2023-03-01T02:15:42.598Z,12.70
2023-03-01T02:16:42.612Z,12.90
2023-03-01T02:17:42.631Z,13.20
2023-03-01T02:18:42.552Z,12.50
2023-03-01T02:19:42.572Z,12.80
2023-03-01T02:20:42.535Z,12.30
2023-03-01T02:21:42.512Z,13.10
2023-03-01T02:22:42.527Z,13.40
2023-03-01T02:23:42.494Z,12.70
2023-03-01T02:24:42.491Z,13.00
2023-03-01T02:25:42.512Z,13.40
2023-03-01T02:26:42.477Z,12.40
2023-03-01T02:27:42.451Z,12.80
2023-03-01T02:28:42.440Z,13.30
2023-03-01T02:29:42.453Z,13.90
2023-03-01T02:30:42.405Z,12.90
2023-03-01T02:31:42.406Z,12.90
2023-03-01T02:32:42.372Z,13.40
2023-03-01T02:33:42.356Z,12.90
2023-03-01T02:34:42.366Z,13.40
2023-03-01T02:35:42.323Z,12.70
2023-03-01T02:36:42.364Z,12.70
2023-03-01T02:37:42.289Z,14.30
2023-03-01T02:38:42.304Z,13.00
2023-03-01T02:39:42.305Z,14.00
2023-03-01T02:40:42.275Z,13.80
2023-03-01T02:41:42.246Z,14.10
2023-03-01T02:42:42.277Z,13.60
2023-03-01T02:43:42.264Z,13.60
2023-03-01T02:44:42.232Z,13.60
2023-03-01T02:45:42.182Z,13.20
2023-03-01T02:46:42.250Z,13.30
2023-03-01T02:47:42.208Z,14.40
2023-03-01T02:48:42.190Z,13.60
2023-03-01T02:49:42.137Z,15.20
2023-03-01T02:50:42.156Z,15.10
2023-03-01T02:51:42.116Z,14.00
2023-03-01T02:52:42.245Z,13.60
2023-03-01T02:53:42.083Z,13.90
2023-03-01T02:54:42.092Z,13.40
2023-03-01T02:55:42.063Z,13.50
2023-03-01T02:56:42.110Z,13.50
2023-03-01T02:57:42.047Z,13.90
2023-03-01T02:58:42.067Z,13.70
2023-03-01T02:59:42.011Z,13.80
2023-03-01T03:00:42.120Z,14.40
2023-03-01T03:01:41.990Z,14.30
2023-03-01T03:02:41.999Z,13.90
2023-03-01T03:03:42.045Z,14.40
2023-03-01T03:04:41.970Z,14.00
2023-03-01T03:05:41.957Z,14.10
2023-03-01T03:06:41.940Z,13.60
2023-03-01T03:07:41.908Z,14.60
2023-03-01T03:08:42.024Z,14.10
2023-03-01T03:09:41.877Z,14.40
2023-03-01T03:10:41.913Z,13.70
2023-03-01T03:11:41.867Z,14.40
2023-03-01T03:12:41.890Z,14.20
2023-03-01T03:13:41.844Z,14.40
2023-03-01T03:14:41.832Z,14.60
2023-03-01T03:15:41.823Z,14.60
2023-03-01T03:16:41.875Z,14.20
2023-03-01T03:17:41.780Z,14.30
2023-03-01T03:18:41.779Z,15.00
2023-03-01T03:19:41.745Z,14.30
2023-03-01T03:20:41.789Z,14.00
2023-03-01T03:21:41.723Z,15.00
2023-03-01T03:22:41.745Z,14.30
2023-03-01T03:23:41.699Z,14.60
2023-03-01T03:24:41.700Z,15.60
2023-03-01T03:25:41.666Z,13.90
2023-03-01T03:26:41.708Z,14.10
2023-03-01T03:27:41.641Z,14.90
2023-03-01T03:28:41.665Z,15.30
2023-03-01T03:29:41.614Z,14.40
2023-03-01T03:30:41.641Z,14.10
2023-03-01T03:31:41.622Z,14.60
2023-03-01T03:32:41.661Z,14.70
2023-03-01T03:33:41.571Z,14.30
2023-03-01T03:34:41.576Z,14.70
2023-03-01T03:35:41.554Z,14.40
2023-03-01T03:36:41.558Z,14.60
2023-03-01T03:37:41.519Z,14.40
2023-03-01T03:38:41.547Z,14.50
2023-03-01T03:39:41.519Z,14.70
2023-03-01T03:40:41.488Z,15.00
2023-03-01T03:41:41.472Z,14.10
2023-03-01T03:42:41.474Z,15.50
2023-03-01T03:43:41.431Z,15.00
2023-03-01T03:44:41.457Z,14.80
2023-03-01T03:45:41.429Z,14.50
2023-03-01T03:46:41.437Z,15.60
2023-03-01T03:47:41.372Z,14.80
2023-03-01T03:48:41.432Z,15.60
2023-03-01T03:49:41.353Z,16.10
2023-03-01T03:50:41.367Z,14.50
2023-03-01T03:51:41.324Z,15.70
2023-03-01T03:52:41.347Z,15.70
2023-03-01T03:53:41.331Z,14.70
2023-03-01T03:54:41.315Z,15.50
2023-03-01T03:55:41.296Z,14.50
2023-03-01T03:56:41.279Z,15.80
2023-03-01T03:57:41.266Z,14.90
2023-03-01T03:58:41.268Z,15.10
2023-03-01T03:59:41.266Z,15.00
2023-03-01T04:00:41.235Z,15.50
2023-03-01T04:01:41.304Z,14.90
2023-03-01T04:02:41.307Z,15.80
2023-03-01T04:03:41.231Z,15.00
2023-03-01T04:04:41.168Z,15.50
2023-03-01T04:05:41.176Z,15.60
2023-03-01T04:06:41.133Z,16.20
2023-03-01T04:07:41.148Z,15.10
2023-03-01T04:08:41.139Z,15.00
2023-03-01T04:09:41.153Z,15.80
2023-03-01T04:10:41.088Z,17.50
2023-03-01T04:11:41.096Z,17.60
2023-03-01T04:12:41.055Z,16.40
2023-03-01T04:13:41.095Z,16.00
2023-03-01T04:14:41.040Z,15.60
2023-03-01T04:15:41.040Z,16.00
2023-03-01T04:16:41.044Z,15.30
2023-03-01T04:17:40.980Z,16.00
2023-03-01T04:18:40.998Z,15.10
2023-03-01T04:19:40.990Z,16.60
2023-03-01T04:20:40.974Z,15.80
2023-03-01T04:21:40.944Z,16.20
2023-03-01T04:22:40.937Z,15.60
2023-03-01T04:23:40.946Z,15.60
2023-03-01T04:24:40.947Z,16.30
2023-03-01T04:25:40.921Z,16.60
2023-03-01T04:26:40.890Z,16.60
2023-03-01T04:27:40.858Z,16.30
2023-03-01T04:28:40.887Z,16.10
2023-03-01T04:29:40.837Z,15.90
2023-03-01T04:30:40.902Z,17.30
2023-03-01T04:31:40.837Z,16.20
2023-03-01T04:32:40.839Z,16.30
2023-03-01T04:33:40.779Z,16.70
2023-03-01T04:34:40.788Z,15.90
2023-03-01T04:35:40.872Z,16.30
2023-03-01T04:36:40.885Z,16.40
2023-03-01T04:37:40.726Z,15.90
2023-03-01T04:38:40.751Z,16.20
2023-03-01T04:39:40.713Z,17.30
2023-03-01T04:40:40.717Z,16.30
2023-03-01T04:41:40.707Z,16.50
2023-03-01T04:42:40.682Z,16.90
2023-03-01T04:43:40.646Z,16.70
2023-03-01T04:44:40.657Z,17.00
2023-03-01T04:45:40.676Z,16.80
2023-03-01T04:46:40.649Z,16.40
2023-03-01T04:47:40.593Z,16.50
2023-03-01T04:48:40.614Z,16.60
2023-03-01T04:49:40.570Z,16.70
2023-03-01T04:50:40.596Z,16.20
2023-03-01T04:51:40.577Z,15.80
2023-03-01T04:52:40.605Z,16.70
2023-03-01T04:53:40.516Z,16.90
2023-03-01T04:54:40.530Z,17.40
2023-03-01T04:55:40.495Z,16.30
2023-03-01T04:56:40.532Z,17.10
2023-03-01T04:57:40.482Z,17.70
2023-03-01T04:58:40.497Z,17.10
2023-03-01T04:59:40.462Z,16.50
2023-03-01T05:00:40.460Z,16.60
2023-03-01T05:01:40.451Z,16.90
2023-03-01T05:02:40.462Z,17.10
2023-03-01T05:03:42.052Z,16.80
2023-03-01T05:04:40.449Z,17.40
2023-03-01T05:05:40.379Z,17.00
2023-03-01T05:06:40.412Z,16.60
2023-03-01T05:07:40.365Z,17.20
2023-03-01T05:08:40.348Z,17.50
2023-03-01T05:09:40.312Z,18.30
2023-03-01T05:10:40.365Z,18.40
2023-03-01T05:11:40.301Z,16.80
2023-03-01T05:12:40.314Z,17.10
2023-03-01T05:13:40.310Z,16.90
2023-03-01T05:14:40.282Z,16.90
2023-03-01T05:15:40.263Z,16.90
2023-03-01T05:16:40.268Z,17.80
2023-03-01T05:17:40.209Z,18.00
2023-03-01T05:18:40.235Z,17.30
2023-03-01T05:19:40.190Z,18.60
2023-03-01T05:20:40.210Z,18.00
2023-03-01T05:21:40.177Z,18.00
2023-03-01T05:22:40.188Z,17.40
2023-03-01T05:23:40.148Z,17.60
2023-03-01T05:24:40.186Z,18.40
2023-03-01T05:25:40.120Z,18.20
2023-03-01T05:26:40.702Z,19.40
2023-03-01T05:27:40.081Z,19.50
2023-03-01T05:28:40.162Z,21.20
2023-03-01T05:29:40.053Z,21.00
2023-03-01T05:30:40.062Z,19.70
2023-03-01T05:31:40.056Z,20.30
2023-03-01T05:32:40.046Z,19.30
2023-03-01T05:33:40.035Z,18.50
2023-03-01T05:34:40.019Z,17.80
2023-03-01T05:35:40.002Z,19.40
2023-03-01T05:36:39.988Z,17.70
2023-03-01T05:37:39.959Z,18.70
2023-03-01T05:38:39.961Z,20.20
2023-03-01T05:39:39.947Z,19.60
2023-03-01T05:40:39.938Z,19.80
2023-03-01T05:41:39.900Z,20.10
2023-03-01T05:42:39.928Z,17.90
2023-03-01T05:43:39.870Z,18.90
2023-03-01T05:44:39.900Z,19.90
2023-03-01T05:45:39.848Z,19.90
2023-03-01T05:46:39.910Z,18.80
2023-03-01T05:47:39.833Z,20.30
2023-03-01T05:48:39.874Z,19.60
2023-03-01T05:49:39.976Z,19.20
2023-03-01T05:50:39.811Z,20.50
2023-03-01T05:51:39.775Z,19.00
2023-03-01T05:52:39.795Z,18.40
2023-03-01T05:53:39.750Z,18.30
2023-03-01T05:54:39.861Z,18.70
2023-03-01T05:55:39.726Z,18.70
2023-03-01T05:56:39.748Z,18.90
2023-03-01T05:57:39.698Z,18.80
2023-03-01T05:58:39.815Z,19.10
2023-03-01T05:59:39.705Z,19.60
2023-03-01T06:00:39.692Z,19.10
2023-03-01T06:01:39.721Z,18.20
2023-03-01T06:02:39.667Z,19.80
2023-03-01T06:03:39.625Z,19.40
2023-03-01T06:04:39.641Z,20.90
2023-03-01T06:05:39.676Z,18.90
2023-03-01T06:06:39.623Z,18.80
2023-03-01T06:07:39.581Z,19.20
2023-03-01T06:08:39.605Z,19.00
2023-03-01T06:09:39.567Z,19.70
2023-03-01T06:10:39.556Z,19.70
2023-03-01T06:11:39.526Z,19.30
2023-03-01T06:12:39.528Z,19.10
2023-03-01T06:13:39.521Z,18.90
2023-03-01T06:14:39.491Z,18.30
2023-03-01T06:15:39.522Z,20.30
2023-03-01T06:16:39.493Z,19.90
2023-03-01T06:17:39.460Z,19.00
2023-03-01T06:18:39.487Z,19.50
2023-03-01T06:19:39.417Z,19.70
2023-03-01T06:20:39.452Z,21.20
2023-03-01T06:21:39.381Z,19.40
2023-03-01T06:22:39.402Z,19.70
2023-03-01T06:23:39.380Z,19.70
2023-03-01T06:24:39.368Z,20.00
2023-03-01T06:25:39.381Z,19.90
2023-03-01T06:26:39.354Z,19.40
2023-03-01T06:27:39.331Z,18.80
2023-03-01T06:28:40.289Z,18.90
2023-03-01T06:29:41.155Z,19.30
2023-03-01T06:30:39.325Z,20.20
2023-03-01T06:31:39.333Z,19.60
2023-03-01T06:32:39.278Z,19.50
2023-03-01T06:33:39.254Z,19.80
2023-03-01T06:34:39.249Z,19.10
2023-03-01T06:35:39.233Z,20.10
2023-03-01T06:36:39.250Z,19.80
2023-03-01T06:37:39.205Z,21.30
2023-03-01T06:38:39.203Z,20.20
2023-03-01T06:39:39.163Z,19.30
2023-03-01T06:40:39.186Z,19.40
2023-03-01T06:41:39.130Z,20.60
2023-03-01T06:42:39.138Z,19.40
2023-03-01T06:43:39.110Z,19.20
2023-03-01T06:44:39.122Z,19.50
2023-03-01T06:45:39.086Z,21.20
2023-03-01T06:46:39.179Z,19.00
2023-03-01T06:47:39.056Z,19.60
2023-03-01T06:48:39.085Z,19.80
2023-03-01T06:49:39.033Z,19.00
2023-03-01T06:50:39.125Z,20.20
2023-03-01T06:51:39.037Z,19.60
2023-03-01T06:52:39.009Z,18.70
2023-03-01T06:53:38.985Z,19.20
2023-03-01T06:54:39.004Z,18.70
2023-03-01T06:55:38.966Z,19.50
2023-03-01T06:56:38.982Z,20.90
2023-03-01T06:57:38.930Z,19.10
2023-03-01T06:58:38.965Z,19.50
2023-03-01T06:59:38.913Z,18.30
2023-03-01T07:00:38.936Z,19.40
2023-03-01T07:01:38.912Z,19.20
2023-03-01T07:02:38.968Z,18.90
2023-03-01T07:03:38.869Z,17.50
2023-03-01T07:04:38.863Z,19.00
2023-03-01T07:05:38.829Z,18.70
2023-03-01T07:06:38.858Z,19.00
2023-03-01T07:07:38.818Z,19.50
2023-03-01T07:08:38.830Z,19.60
2023-03-01T07:09:38.777Z,20.30
2023-03-01T07:10:38.773Z,19.10
2023-03-01T07:11:38.742Z,18.00
2023-03-01T07:12:38.777Z,19.10
2023-03-01T07:13:38.711Z,19.60
2023-03-01T07:14:38.733Z,19.40
2023-03-01T07:15:38.676Z,19.40
2023-03-01T07:16:38.708Z,19.10
2023-03-01T07:17:38.656Z,19.50
2023-03-01T07:18:38.718Z,18.50
2023-03-01T07:19:38.643Z,18.90
2023-03-01T07:20:38.677Z,18.70
2023-03-01T07:21:38.607Z,18.60
2023-03-01T07:22:38.623Z,18.60
2023-03-01T07:23:38.606Z,19.40
2023-03-01T07:24:38.612Z,19.70
2023-03-01T07:25:38.576Z,19.40
2023-03-01T07:26:38.560Z,18.50
2023-03-01T07:27:38.565Z,19.60
2023-03-01T07:28:38.539Z,17.90
2023-03-01T07:29:38.555Z,18.80
2023-03-01T07:30:38.523Z,19.10
2023-03-01T07:31:38.501Z,18.10
2023-03-01T07:32:38.619Z,19.40
2023-03-01T07:33:38.460Z,18.70
2023-03-01T07:34:38.463Z,19.70
2023-03-01T07:35:38.535Z,19.90
2023-03-01T07:36:38.450Z,19.00
2023-03-01T07:37:38.442Z,18.00
2023-03-01T07:38:38.412Z,18.40
2023-03-01T07:39:38.403Z,19.60
2023-03-01T07:40:38.395Z,17.60
2023-03-01T07:41:38.378Z,19.30
2023-03-01T07:42:38.384Z,19.60
2023-03-01T07:43:38.325Z,19.50
2023-03-01T07:44:38.394Z,19.50
2023-03-01T07:45:38.326Z,18.90
2023-03-01T07:46:38.296Z,19.50
2023-03-01T07:47:38.276Z,19.10
2023-03-01T07:48:38.291Z,19.30
2023-03-01T07:49:38.272Z,18.70
2023-03-01T07:50:38.291Z,19.50
2023-03-01T07:51:38.234Z,19.20
2023-03-01T07:52:38.249Z,18.90
2023-03-01T07:53:38.236Z,19.60
2023-03-01T07:54:38.234Z,19.30
2023-03-01T07:55:38.225Z,18.40
2023-03-01T07:56:38.182Z,19.10
2023-03-01T07:57:38.135Z,19.10
2023-03-01T07:58:38.163Z,18.30
2023-03-01T07:59:38.161Z,18.80
2023-03-01T08:00:38.160Z,19.80
2023-03-01T08:01:38.181Z,19.80
2023-03-01T08:02:38.096Z,18.40
2023-03-01T08:03:38.054Z,18.70
2023-03-01T08:04:38.078Z,17.90
2023-03-01T08:05:38.038Z,18.70
2023-03-01T08:06:38.063Z,18.70
2023-03-01T08:07:38.008Z,18.80
2023-03-01T08:08:38.017Z,19.40
2023-03-01T08:09:37.991Z,18.70
2023-03-01T08:10:38.015Z,19.20
2023-03-01T08:11:38.069Z,19.00
2023-03-01T08:12:37.962Z,17.90
2023-03-01T08:13:37.942Z,19.50
2023-03-01T08:14:37.930Z,18.60
2023-03-01T08:15:37.908Z,18.10
2023-03-01T08:16:38.004Z,18.80
2023-03-01T08:17:37.885Z,18.20
2023-03-01T08:18:37.878Z,18.80
2023-03-01T08:19:37.842Z,19.70
2023-03-01T08:20:37.873Z,19.20
2023-03-01T08:21:37.862Z,18.40
2023-03-01T08:22:37.847Z,18.40
2023-03-01T08:23:37.786Z,18.90
2023-03-01T08:24:37.796Z,18.50
2023-03-01T08:25:37.767Z,18.50
2023-03-01T08:26:37.850Z,18.70
2023-03-01T08:27:37.735Z,18.30
2023-03-01T08:28:37.770Z,18.80
2023-03-01T08:29:37.718Z,18.10
2023-03-01T08:30:37.735Z,18.90
2023-03-01T08:31:37.723Z,19.20
2023-03-01T08:32:37.801Z,18.20
2023-03-01T08:33:37.686Z,19.40
2023-03-01T08:34:37.668Z,18.70
2023-03-01T08:35:37.716Z,19.20
2023-03-01T08:36:37.608Z,18.90
2023-03-01T08:37:37.648Z,19.30
2023-03-01T08:38:37.582Z,18.40
2023-03-01T08:39:37.660Z,18.90
2023-03-01T08:40:37.578Z,18.50
2023-03-01T08:41:37.568Z,18.50
2023-03-01T08:42:37.572Z,18.70
2023-03-01T08:43:37.554Z,18.20
2023-03-01T08:44:37.505Z,18.00
2023-03-01T08:45:37.583Z,18.60
2023-03-01T08:46:37.487Z,18.30
2023-03-01T08:47:37.540Z,18.50
2023-03-01T08:48:37.477Z,19.60
2023-03-01T08:49:37.498Z,18.60
2023-03-01T08:50:37.430Z,17.90
2023-03-01T08:51:37.444Z,17.90
2023-03-01T08:52:37.444Z,17.90
2023-03-01T08:53:37.428Z,18.80
2023-03-01T08:54:37.371Z,18.70
2023-03-01T08:55:37.410Z,18.20
2023-03-01T08:56:37.366Z,19.40
2023-03-01T08:57:37.467Z,19.30
2023-03-01T08:58:37.319Z,18.90
2023-03-01T08:59:37.398Z,18.50
2023-03-01T09:00:37.303Z,18.10
2023-03-01T09:01:37.320Z,19.10
2023-03-01T09:02:37.334Z,18.60
2023-03-01T09:03:37.320Z,17.30
2023-03-01T09:04:37.247Z,18.00
2023-03-01T09:05:37.282Z,17.30
2023-03-01T09:06:37.215Z,18.40
2023-03-01T09:07:37.237Z,18.40
2023-03-01T09:08:37.227Z,19.40
2023-03-01T09:09:37.244Z,18.70
2023-03-01T09:10:37.161Z,19.00
2023-03-01T09:11:37.205Z,18.50
2023-03-01T09:12:37.152Z,18.40
2023-03-01T09:13:37.169Z,18.10
2023-03-01T09:14:37.140Z,18.20
2023-03-01T09:15:37.162Z,18.10
2023-03-01T09:16:37.312Z,19.20
2023-03-01T09:17:37.110Z,17.80
2023-03-01T09:18:37.088Z,18.80
2023-03-01T09:19:37.089Z,18.40
2023-03-01T09:20:37.070Z,17.70
2023-03-01T09:21:40.744Z,18.20
2023-03-01T09:22:37.029Z,19.40
2023-03-01T09:23:37.038Z,18.50
2023-03-01T09:24:37.008Z,18.50
2023-03-01T09:25:36.990Z,18.80
2023-03-01T09:26:36.969Z,18.10
2023-03-01T09:27:36.974Z,18.40
2023-03-01T09:28:36.938Z,18.90
2023-03-01T09:29:36.951Z,18.10
2023-03-01T09:30:37.400Z,17.90
2023-03-01T09:31:36.911Z,17.90
2023-03-01T09:32:37.018Z,18.30
2023-03-01T09:33:36.894Z,17.80
2023-03-01T09:34:36.845Z,17.80
2023-03-01T09:35:36.930Z,17.60
2023-03-01T09:36:36.867Z,17.30
2023-03-01T09:37:36.859Z,17.50
2023-03-01T09:38:36.791Z,17.40
2023-03-01T09:39:36.825Z,18.40
2023-03-01T09:40:36.795Z,17.20
2023-03-01T09:41:36.780Z,17.90
2023-03-01T09:42:36.767Z,18.50
2023-03-01T09:43:36.761Z,17.30
2023-03-01T09:44:36.746Z,17.90
2023-03-01T09:45:36.751Z,19.40
2023-03-01T09:46:36.722Z,18.60
2023-03-01T09:47:36.764Z,18.30
2023-03-01T09:48:36.645Z,18.70
2023-03-01T09:49:36.680Z,18.80
2023-03-01T09:50:36.638Z,18.50
2023-03-01T09:51:36.650Z,17.60
2023-03-01T09:52:36.648Z,17.40
2023-03-01T09:53:36.621Z,18.10
2023-03-01T09:54:36.585Z,18.10
2023-03-01T09:55:36.603Z,18.00
2023-03-01T09:56:36.566Z,17.90
2023-03-01T09:57:36.594Z,18.30
2023-03-01T09:58:36.551Z,18.00
2023-03-01T09:59:36.548Z,17.10
2023-03-01T10:00:36.505Z,18.00
2023-03-01T10:01:36.516Z,18.00
2023-03-01T10:02:36.521Z,18.10
2023-03-01T10:03:36.524Z,19.20
2023-03-01T10:04:37.654Z,18.70
2023-03-01T10:05:36.494Z,18.50
2023-03-01T10:06:36.439Z,18.30
2023-03-01T10:07:36.427Z,18.50
2023-03-01T10:08:36.432Z,17.50
2023-03-01T10:09:36.409Z,18.40
2023-03-01T10:10:36.381Z,17.90
2023-03-01T10:11:36.914Z,17.60
2023-03-01T10:12:36.357Z,17.00
2023-03-01T10:13:36.375Z,18.30
2023-03-01T10:14:36.342Z,18.30
2023-03-01T10:15:36.402Z,18.70
2023-03-01T10:16:36.285Z,17.50
2023-03-01T10:17:36.313Z,17.80
2023-03-01T10:18:36.287Z,18.60
2023-03-01T10:19:36.292Z,16.70
2023-03-01T10:20:36.241Z,18.10
2023-03-01T10:21:36.245Z,17.90
2023-03-01T10:22:36.261Z,17.90
2023-03-01T10:23:36.214Z,18.10
2023-03-01T10:24:36.179Z,18.60
2023-03-01T10:25:36.181Z,18.60
2023-03-01T10:26:36.188Z,18.10
2023-03-01T10:27:36.167Z,17.60
2023-03-01T10:28:36.153Z,16.40
2023-03-01T10:29:36.140Z,18.30
2023-03-01T10:30:36.155Z,19.20
2023-03-01T10:31:36.202Z,18.00
2023-03-01T10:32:36.213Z,18.40
2023-03-01T10:33:36.078Z,19.60
2023-03-01T10:34:36.056Z,18.10
2023-03-01T10:35:36.074Z,18.20
2023-03-01T10:36:36.035Z,19.60
2023-03-01T10:37:36.053Z,19.30
2023-03-01T10:38:36.012Z,19.60
2023-03-01T10:39:36.016Z,19.00
2023-03-01T10:40:35.998Z,19.90
2023-03-01T10:41:35.982Z,19.20
2023-03-01T10:42:35.949Z,19.50
2023-03-01T10:43:35.969Z,19.00
2023-03-01T10:44:35.917Z,19.40
2023-03-01T10:45:35.938Z,19.90
2023-03-01T10:46:35.972Z,18.60
2023-03-01T10:47:35.922Z,18.10
2023-03-01T10:48:35.854Z,19.30
2023-03-01T10:49:35.895Z,19.30
2023-03-01T10:50:35.832Z,19.90
2023-03-01T10:51:35.839Z,19.30
2023-03-01T10:52:35.829Z,18.70
2023-03-01T10:53:35.824Z,20.40
2023-03-01T10:54:35.801Z,19.20
2023-03-01T10:55:35.803Z,20.00
2023-03-01T10:56:35.761Z,18.50
2023-03-01T10:57:35.807Z,20.00
2023-03-01T10:58:35.740Z,19.80
2023-03-01T10:59:35.748Z,19.00
2023-03-01T11:00:35.711Z,18.00
2023-03-01T11:01:36.192Z,18.40
2023-03-01T11:02:35.701Z,19.50
2023-03-01T11:03:35.696Z,18.40
2023-03-01T11:04:35.685Z,17.80
2023-03-01T11:05:35.688Z,20.70
2023-03-01T11:06:35.618Z,18.90
2023-03-01T11:07:36.402Z,20.20
2023-03-01T11:08:35.631Z,19.00
2023-03-01T11:09:35.619Z,19.30
2023-03-01T11:10:35.590Z,18.60
2023-03-01T11:11:35.584Z,19.10
2023-03-01T11:12:35.559Z,18.90
2023-03-01T11:13:36.900Z,18.10
2023-03-01T11:14:35.557Z,19.00
2023-03-01T11:15:35.570Z,19.00
2023-03-01T11:16:35.481Z,17.60
2023-03-01T11:17:48.065Z,18.20
2023-03-01T11:18:47.025Z,18.90
2023-03-01T11:19:35.505Z,20.00
2023-03-01T11:20:35.444Z,19.40
2023-03-01T11:21:35.479Z,19.00
2023-03-01T11:22:35.491Z,17.80
2023-03-01T11:23:35.423Z,18.20
2023-03-01T11:24:35.429Z,19.30
2023-03-01T11:25:35.427Z,18.60
2023-03-01T11:26:35.348Z,22.20
2023-03-01T11:27:35.993Z,19.20
2023-03-01T11:28:35.321Z,18.30
2023-03-01T11:29:47.730Z,17.80
2023-03-01T11:30:35.368Z,19.20
2023-03-01T11:31:35.428Z,19.10
2023-03-01T11:32:35.385Z,19.10
2023-03-01T11:33:35.295Z,18.10
2023-03-01T11:34:35.271Z,20.30
2023-03-01T11:35:35.309Z,18.90
2023-03-01T11:36:35.217Z,19.10
2023-03-01T11:37:35.235Z,18.40
2023-03-01T11:38:35.198Z,19.00
2023-03-01T11:39:35.238Z,19.20
2023-03-01T11:40:35.232Z,18.40
2023-03-01T11:41:35.584Z,19.30
2023-03-01T11:42:35.174Z,19.00
2023-03-01T11:43:35.194Z,19.00
2023-03-01T11:44:35.167Z,18.40
2023-03-01T11:45:35.128Z,18.20
2023-03-01T11:46:35.215Z,18.70
2023-03-01T11:47:35.231Z,19.60
2023-03-01T11:48:48.820Z,19.40
2023-03-01T11:49:35.092Z,19.00
2023-03-01T11:50:35.070Z,20.50
2023-03-01T11:51:35.086Z,20.10
2023-03-01T11:52:35.007Z,19.30
2023-03-01T11:53:35.014Z,19.20
2023-03-01T11:54:35.030Z,19.40
2023-03-01T11:55:34.989Z,19.50
2023-03-01T11:56:35.060Z,20.30
2023-03-01T11:57:43.332Z,20.70
2023-03-01T11:58:34.945Z,21.10
2023-03-01T11:59:34.949Z,21.00
2023-03-01T12:00:34.912Z,20.60
2023-03-01T12:01:35.330Z,19.10
2023-03-01T12:02:34.999Z,20.20
2023-03-01T12:03:34.895Z,20.80
2023-03-01T12:04:34.916Z,20.60
2023-03-01T12:05:34.870Z,20.80
2023-03-01T12:06:34.847Z,18.90
2023-03-01T12:07:34.834Z,19.00
2023-03-01T12:08:34.809Z,20.00
2023-03-01T12:09:34.818Z,19.20
2023-03-01T12:10:34.780Z,18.90
2023-03-01T12:11:34.816Z,19.90
2023-03-01T12:12:34.779Z,21.40
2023-03-01T12:13:34.757Z,19.60
2023-03-01T12:14:34.705Z,19.80
2023-03-01T12:15:34.752Z,20.40
2023-03-01T12:16:39.558Z,19.70
2023-03-01T12:17:34.731Z,19.50
2023-03-01T12:18:34.806Z,19.30
2023-03-01T12:19:34.703Z,18.90
2023-03-01T12:20:34.657Z,19.00
2023-03-01T12:21:34.663Z,19.20
2023-03-01T12:22:34.638Z,18.50
2023-03-01T12:23:34.649Z,20.60
2023-03-01T12:24:34.613Z,21.40
2023-03-01T12:25:34.594Z,18.50
2023-03-01T12:26:34.561Z,19.40
2023-03-01T12:27:34.571Z,19.70
2023-03-01T12:28:34.555Z,20.40
2023-03-01T12:29:34.552Z,20.90
2023-03-01T12:30:34.491Z,21.60
2023-03-01T12:31:35.041Z,20.00
2023-03-01T12:32:36.143Z,19.10
2023-03-01T12:33:34.517Z,19.10
2023-03-01T12:34:34.452Z,18.00
2023-03-01T12:35:34.510Z,18.80
2023-03-01T12:36:34.430Z,20.80
2023-03-01T12:37:34.469Z,18.80
2023-03-01T12:38:34.408Z,18.50
2023-03-01T12:39:34.418Z,19.00
2023-03-01T12:40:34.379Z,18.50
2023-03-01T12:41:34.381Z,18.50
2023-03-01T12:42:34.379Z,17.60
2023-03-01T12:43:34.399Z,19.20
2023-03-01T12:44:34.323Z,19.40
2023-03-01T12:45:34.415Z,19.80
2023-03-01T12:46:34.309Z,18.80
2023-03-01T12:47:34.312Z,19.70
2023-03-01T12:48:34.302Z,19.50
2023-03-01T12:49:34.258Z,18.40
2023-03-01T12:50:34.268Z,18.60
2023-03-01T12:51:34.238Z,18.80
2023-03-01T12:52:34.255Z,17.80